Accueil
METAR-TAF:

METAR-TAF

Aéroports :

Aérodrome de Londres Biggin Hill

Londres Biggin Hill, Angleterre

latitude: 51-19N, longitude: 000-02E, altitude: 183 m

Observation

Le bulletin a été fait il y a 21 minutes, à 13:50 UTC
Vent 8 kt de sud/sud-ouest, variant entre sud et ouest
Température 22°C
Humidité 73%
Pression 1021 hPa
Visibilité 10 km ou plus
Nuages épars à une hauteur de 2500 ft

METAR: EGKB 201350Z 21008KT 190V270 9999 SCT025 22/17 Q1021

Heure: 15:11 (14:11 UTC)

Prévision

Le bulletin a été fait il y a 3 heures et 11 minutes, à 11:00 UTC
Prévision valable du 20 à 12 UTC au 20 à 21 UTC
Vent 4 kt de ouest
Visibilité 10 km ou plus
Nuages épars à une hauteur de 2500 ft

TAF: EGKB 201100Z 2012/2021 26004KT 9999 SCT025

Observations et prévisions météorologiques de plus de 4000 aéroports (messages METAR et TAF).

Les stations disponibles sont représentées par des disques jaunes et rouges sur la carte.

Passer la souris dessus pour voir le nom de la station.

Cliquer dessus pour voir les observations et prévisions météorologiques.

Pour changer de carte: cliquez sur les boutons verts avec une croix noire pour zoomer, sur le bouton vert avec un tiret pour effectuer un zoom arrière, ou sur les flèches vertes pour les cartes adjacentes.


METAR-TAF: